createdAt,value
2022-11-17T00:01:06.672Z,18.02
2022-11-17T00:03:33.824Z,16.80
2022-11-17T00:06:03.540Z,18.00
2022-11-17T00:08:30.519Z,18.30
2022-11-17T00:10:59.675Z,17.77
2022-11-17T00:13:26.329Z,18.50
2022-11-17T00:15:52.966Z,17.25
2022-11-17T00:18:21.076Z,17.17
2022-11-17T00:20:47.859Z,18.55
2022-11-17T00:23:14.700Z,18.85
2022-11-17T00:25:41.528Z,18.40
2022-11-17T00:28:10.071Z,18.80
2022-11-17T00:30:36.834Z,16.67
2022-11-17T00:33:04.324Z,15.57
2022-11-17T00:35:32.629Z,17.77
2022-11-17T00:37:59.398Z,18.70
2022-11-17T00:40:26.239Z,16.88
2022-11-17T00:42:53.008Z,19.05
2022-11-17T00:45:19.664Z,18.98
2022-11-17T00:47:46.335Z,18.20
2022-11-17T00:50:13.000Z,19.80
2022-11-17T00:52:41.167Z,18.98
2022-11-17T00:55:08.315Z,16.88
2022-11-17T00:57:35.059Z,19.63
2022-11-17T01:00:01.773Z,17.92
2022-11-17T01:02:28.447Z,15.85
2022-11-17T01:04:55.499Z,15.40
2022-11-17T01:07:22.241Z,16.02
2022-11-17T01:09:50.533Z,17.42
2022-11-17T01:12:17.241Z,16.48
2022-11-17T01:14:43.918Z,15.32
2022-11-17T01:17:10.638Z,14.85
2022-11-17T01:19:37.320Z,14.90
2022-11-17T01:22:04.061Z,17.40
2022-11-17T01:24:30.808Z,16.17
2022-11-17T01:26:58.990Z,16.77
2022-11-17T01:29:25.753Z,16.45
2022-11-17T01:31:52.483Z,16.73
2022-11-17T01:34:19.380Z,15.98
2022-11-17T01:36:46.063Z,15.73
2022-11-17T01:39:12.844Z,16.20
2022-11-17T01:41:39.627Z,14.85
2022-11-17T01:44:39.798Z,16.15
2022-11-17T01:47:16.069Z,16.17
2022-11-17T01:49:42.955Z,16.17
2022-11-17T01:52:11.601Z,15.55
2022-11-17T01:54:40.566Z,15.70
2022-11-17T01:57:11.750Z,16.20
2022-11-17T01:59:42.579Z,17.17
2022-11-17T02:02:10.787Z,18.20
2022-11-17T02:04:42.965Z,18.75
2022-11-17T02:07:15.630Z,19.15
2022-11-17T02:09:43.822Z,20.27
2022-11-17T02:12:13.595Z,20.77
2022-11-17T02:14:40.605Z,19.92
2022-11-17T02:17:13.721Z,19.88
2022-11-17T02:19:44.725Z,20.33
2022-11-17T02:22:32.593Z,20.52
2022-11-17T02:25:26.813Z,24.15
2022-11-17T02:28:10.904Z,21.48
2022-11-17T02:30:45.911Z,20.88
2022-11-17T02:33:21.808Z,18.60
2022-11-17T02:35:56.262Z,18.48
2022-11-17T02:38:31.642Z,21.23
2022-11-17T02:41:04.912Z,17.90
2022-11-17T02:43:38.574Z,18.25
2022-11-17T02:46:09.367Z,23.55
2022-11-17T02:48:38.863Z,23.20
2022-11-17T02:51:08.642Z,31.17
2022-11-17T02:53:36.925Z,29.45
2022-11-17T02:56:04.493Z,22.48
2022-11-17T02:58:31.359Z,20.48
2022-11-17T03:01:27.573Z,20.65
2022-11-17T03:04:08.979Z,17.08
2022-11-17T03:06:45.851Z,19.25
2022-11-17T03:09:20.119Z,26.50
2022-11-17T03:11:53.477Z,25.05
2022-11-17T03:14:26.377Z,22.75
2022-11-17T03:17:00.756Z,18.80
2022-11-17T03:19:32.951Z,19.60
2022-11-17T03:22:05.978Z,19.23
2022-11-17T03:24:37.466Z,22.30
2022-11-17T03:27:10.099Z,24.45
2022-11-17T03:29:41.542Z,24.50
2022-11-17T03:32:11.844Z,21.92
2022-11-17T03:34:44.038Z,23.08
2022-11-17T03:37:13.838Z,26.88
2022-11-17T03:39:43.156Z,23.55
2022-11-17T03:42:13.750Z,20.42
2022-11-17T03:44:44.637Z,19.60
2022-11-17T03:47:14.693Z,18.55
2022-11-17T03:49:46.362Z,20.67
2022-11-17T03:52:13.192Z,17.67
2022-11-17T03:54:41.466Z,20.40
2022-11-17T03:57:14.102Z,21.45
2022-11-17T03:59:48.624Z,27.65
2022-11-17T04:02:18.232Z,21.83
2022-11-17T04:07:11.945Z,22.70
2022-11-17T04:09:38.801Z,19.98
2022-11-17T04:12:06.102Z,21.60
2022-11-17T04:14:32.827Z,23.55
2022-11-17T04:16:59.704Z,21.08
2022-11-17T04:19:28.295Z,18.73
2022-11-17T04:21:55.087Z,18.10
2022-11-17T04:24:21.816Z,17.40
2022-11-17T04:26:48.561Z,16.23
2022-11-17T04:29:15.287Z,16.42
2022-11-17T04:31:42.022Z,16.23
2022-11-17T04:34:08.779Z,18.67
2022-11-17T04:36:38.093Z,17.42
2022-11-17T04:39:04.910Z,20.58
2022-11-17T04:41:31.624Z,20.13
2022-11-17T04:43:58.819Z,17.80
2022-11-17T04:46:26.208Z,16.42
2022-11-17T04:48:55.127Z,14.40
2022-11-17T04:51:22.934Z,14.43
2022-11-17T04:53:51.083Z,15.23
2022-11-17T04:56:18.715Z,16.02
2022-11-17T04:58:46.017Z,15.95
2022-11-17T05:01:12.754Z,14.95
2022-11-17T05:03:41.365Z,14.05
2022-11-17T05:06:08.473Z,15.77
2022-11-17T05:08:36.622Z,15.80
2022-11-17T05:11:05.848Z,14.13
2022-11-17T05:13:32.814Z,15.23
2022-11-17T05:15:59.793Z,15.20
2022-11-17T05:18:26.551Z,18.15
2022-11-17T05:20:53.235Z,19.42
2022-11-17T05:23:19.946Z,18.52
2022-11-17T05:25:46.674Z,23.42
2022-11-17T05:28:14.796Z,19.55
2022-11-17T05:30:42.628Z,17.85
2022-11-17T05:33:09.496Z,19.40
2022-11-17T05:35:36.244Z,18.92
2022-11-17T05:38:02.933Z,17.50
2022-11-17T05:40:29.727Z,16.08
2022-11-17T05:42:57.280Z,18.75
2022-11-17T05:45:25.647Z,21.42
2022-11-17T05:47:52.440Z,17.15
2022-11-17T05:50:19.158Z,17.88
2022-11-17T05:52:45.922Z,20.63
2022-11-17T05:55:12.692Z,21.42
2022-11-17T05:57:40.366Z,20.38
2022-11-17T06:00:08.781Z,20.80
2022-11-17T06:02:43.387Z,24.00
2022-11-17T06:05:12.371Z,18.67
2022-11-17T06:07:42.668Z,16.00
2022-11-17T06:10:10.508Z,13.32
2022-11-17T06:12:37.233Z,16.42
2022-11-17T06:15:04.614Z,14.73
2022-11-17T06:17:35.328Z,14.32
2022-11-17T06:20:07.675Z,15.98
2022-11-17T06:22:35.477Z,13.45
2022-11-17T06:25:03.886Z,13.85
2022-11-17T06:27:32.398Z,11.95
2022-11-17T06:30:01.170Z,14.73
2022-11-17T06:32:28.203Z,15.02
2022-11-17T06:34:56.482Z,14.80
2022-11-17T06:37:34.250Z,16.60
2022-11-17T06:40:00.907Z,13.75
2022-11-17T06:42:27.673Z,13.40
2022-11-17T06:44:54.463Z,15.75
2022-11-17T06:47:21.194Z,12.55
2022-11-17T06:49:47.988Z,10.45
2022-11-17T06:52:15.841Z,12.27
2022-11-17T06:54:43.898Z,11.52
2022-11-17T06:57:10.647Z,13.00
2022-11-17T06:59:37.619Z,13.52
2022-11-17T07:02:04.375Z,15.20
2022-11-17T07:04:31.057Z,17.98
2022-11-17T07:06:57.808Z,15.95
2022-11-17T07:09:24.582Z,15.57
2022-11-17T07:11:52.853Z,14.57
2022-11-17T07:14:19.735Z,15.43
2022-11-17T07:16:46.500Z,12.05
2022-11-17T07:19:13.169Z,12.48
2022-11-17T07:21:40.140Z,12.05
2022-11-17T07:24:07.545Z,9.98
2022-11-17T07:26:34.197Z,9.52
2022-11-17T07:29:02.374Z,11.18
2022-11-17T07:31:29.029Z,14.38
2022-11-17T07:33:55.782Z,13.82
2022-11-17T07:36:22.732Z,13.30
2022-11-17T07:38:49.489Z,14.98
2022-11-17T07:41:16.224Z,20.05
2022-11-17T07:43:43.028Z,17.73
2022-11-17T07:46:13.408Z,16.75
2022-11-17T07:48:40.500Z,13.70
2022-11-17T07:51:07.156Z,11.80
2022-11-17T07:53:34.809Z,12.13
2022-11-17T07:56:03.441Z,10.75
2022-11-17T07:58:30.101Z,9.10
2022-11-17T08:00:56.894Z,8.90
2022-11-17T08:03:25.113Z,9.35
2022-11-17T08:05:51.841Z,9.88
2022-11-17T08:08:18.667Z,9.40
2022-11-17T08:10:45.367Z,10.02
2022-11-17T08:13:12.119Z,9.43
2022-11-17T08:15:38.786Z,9.30
2022-11-17T08:18:05.927Z,9.13
2022-11-17T08:20:34.040Z,9.07
2022-11-17T08:23:00.728Z,9.05
2022-11-17T08:25:27.729Z,9.98
2022-11-17T08:27:55.418Z,9.07
2022-11-17T08:30:22.484Z,9.65
2022-11-17T08:32:50.571Z,10.00
2022-11-17T08:35:17.910Z,10.48
2022-11-17T08:38:08.903Z,10.27
2022-11-17T08:40:35.707Z,10.30
2022-11-17T08:43:04.104Z,10.98
2022-11-17T08:45:30.911Z,10.82
2022-11-17T08:47:57.758Z,11.57
2022-11-17T08:50:24.653Z,11.00
2022-11-17T08:52:52.471Z,10.63
2022-11-17T08:55:20.733Z,10.38
2022-11-17T08:57:47.499Z,10.88
2022-11-17T09:00:15.226Z,10.63
2022-11-17T09:02:41.862Z,10.77
2022-11-17T09:05:09.216Z,10.40
2022-11-17T09:07:36.056Z,10.20
2022-11-17T09:10:05.292Z,9.82
2022-11-17T09:12:35.787Z,9.63
2022-11-17T09:15:04.299Z,10.75
2022-11-17T09:17:31.460Z,12.35
2022-11-17T09:19:59.512Z,12.43
2022-11-17T09:22:26.381Z,17.02
2022-11-17T09:24:53.212Z,14.23
2022-11-17T09:27:19.973Z,13.10
2022-11-17T09:29:48.136Z,13.60
2022-11-17T09:32:14.893Z,11.75
2022-11-17T09:34:41.824Z,12.05
2022-11-17T09:37:09.675Z,11.73
2022-11-17T09:39:36.340Z,11.82
2022-11-17T09:42:04.776Z,11.50
2022-11-17T09:44:36.505Z,11.40
2022-11-17T09:47:14.109Z,11.00
2022-11-17T09:49:53.723Z,10.90
2022-11-17T09:52:31.067Z,11.27
2022-11-17T09:55:00.173Z,12.65
2022-11-17T09:57:34.915Z,12.55
2022-11-17T10:00:07.375Z,12.05
2022-11-17T10:02:35.736Z,13.32
2022-11-17T10:05:02.616Z,14.00
2022-11-17T10:07:34.741Z,13.38
2022-11-17T10:10:03.454Z,14.43
2022-11-17T10:12:36.370Z,14.07
2022-11-17T10:15:21.612Z,13.13
2022-11-17T10:17:50.490Z,12.43
2022-11-17T10:20:20.214Z,12.98
2022-11-17T10:22:47.956Z,12.77
2022-11-17T10:25:36.012Z,12.65
2022-11-17T10:28:02.926Z,13.23
2022-11-17T10:30:35.882Z,13.77
2022-11-17T10:33:04.717Z,15.63
2022-11-17T10:35:32.795Z,15.55
2022-11-17T10:38:00.824Z,15.40
2022-11-17T10:40:30.679Z,15.80
2022-11-17T10:43:16.232Z,13.85
2022-11-17T10:45:43.961Z,11.88
2022-11-17T10:48:25.995Z,11.43
2022-11-17T10:50:54.933Z,10.68
2022-11-17T10:53:28.237Z,10.57
2022-11-17T10:56:00.148Z,9.80
2022-11-17T10:58:28.574Z,10.95
2022-11-17T11:00:56.737Z,10.13
2022-11-17T11:03:28.260Z,10.00
2022-11-17T11:05:58.963Z,10.27
2022-11-17T11:08:30.001Z,11.25
2022-11-17T11:10:59.596Z,10.05
2022-11-17T11:13:32.591Z,10.43
2022-11-17T11:16:10.648Z,10.63
2022-11-17T11:18:39.089Z,11.05
2022-11-17T11:21:18.276Z,10.30
2022-11-17T11:23:54.723Z,10.45
2022-11-17T11:26:48.564Z,11.35
2022-11-17T11:29:53.990Z,11.02
2022-11-17T11:32:38.861Z,11.10
2022-11-17T11:35:30.714Z,11.25
2022-11-17T11:38:09.756Z,11.70
2022-11-17T11:40:40.133Z,12.18
2022-11-17T11:43:22.135Z,11.48
2022-11-17T11:46:01.562Z,11.75
2022-11-17T11:48:31.975Z,12.43
2022-11-17T11:51:05.752Z,11.35
2022-11-17T11:53:41.122Z,11.30
2022-11-17T11:56:14.801Z,11.00
2022-11-17T11:58:46.895Z,10.82
2022-11-17T12:01:15.852Z,11.30
2022-11-17T12:03:49.686Z,12.05
2022-11-17T12:06:27.626Z,12.35
2022-11-17T12:09:03.499Z,11.55
2022-11-17T12:11:31.580Z,11.27
2022-11-17T12:14:06.796Z,11.15
2022-11-17T12:16:35.984Z,10.88
2022-11-17T12:19:23.225Z,10.70
2022-11-17T12:21:55.424Z,11.00
2022-11-17T12:24:33.644Z,10.52
2022-11-17T12:27:48.110Z,10.63
2022-11-17T12:30:53.919Z,11.50
2022-11-17T12:33:21.567Z,11.98
2022-11-17T12:36:30.602Z,11.52
2022-11-17T12:39:05.104Z,12.55
2022-11-17T12:42:08.824Z,12.23
2022-11-17T12:45:03.745Z,12.32
2022-11-17T12:47:34.139Z,12.73
2022-11-17T12:50:26.284Z,12.52
2022-11-17T12:53:22.988Z,13.35
2022-11-17T12:56:11.273Z,13.07
2022-11-17T12:58:51.244Z,13.73
2022-11-17T13:01:27.705Z,12.15
2022-11-17T13:04:03.061Z,13.93
2022-11-17T13:06:36.723Z,12.82
2022-11-17T13:09:13.601Z,11.85
2022-11-17T13:12:00.755Z,11.43
2022-11-17T13:14:29.957Z,11.27
2022-11-17T13:17:02.376Z,12.10
2022-11-17T13:19:35.190Z,11.57
2022-11-17T13:22:04.289Z,11.88
2022-11-17T13:24:34.558Z,12.35
2022-11-17T13:27:04.292Z,11.52
2022-11-17T13:29:34.235Z,12.00
2022-11-17T13:32:28.676Z,11.57
2022-11-17T13:34:57.742Z,11.48
2022-11-17T13:37:26.684Z,12.27
2022-11-17T13:40:01.509Z,11.23
2022-11-17T13:42:37.161Z,12.30
2022-11-17T13:45:07.268Z,11.40
2022-11-17T13:47:46.276Z,11.85
2022-11-17T13:50:36.899Z,12.25
2022-11-17T13:53:14.014Z,11.85
2022-11-17T13:55:45.190Z,11.43
2022-11-17T13:58:27.215Z,11.30
2022-11-17T14:00:56.150Z,11.95
2022-11-17T14:03:33.725Z,12.75
2022-11-17T14:06:16.465Z,11.48
2022-11-17T14:09:02.855Z,11.95
2022-11-17T14:11:30.001Z,12.15
2022-11-17T14:14:16.048Z,12.27
2022-11-17T14:16:48.217Z,12.07
2022-11-17T14:19:33.833Z,12.98
2022-11-17T14:22:02.740Z,13.13
2022-11-17T14:24:40.540Z,11.55
2022-11-17T14:27:36.565Z,13.15
2022-11-17T14:30:21.207Z,11.80
2022-11-17T14:32:53.436Z,12.30
2022-11-17T14:35:20.786Z,12.18
2022-11-17T14:37:49.025Z,12.90
2022-11-17T14:40:19.657Z,12.80
2022-11-17T14:42:51.667Z,11.82
2022-11-17T14:45:25.415Z,12.32
2022-11-17T14:48:00.293Z,13.68
2022-11-17T14:50:27.507Z,13.00
2022-11-17T14:53:15.466Z,12.52
2022-11-17T14:55:42.668Z,13.35
2022-11-17T14:58:09.547Z,12.48
2022-11-17T15:00:39.131Z,12.77
2022-11-17T15:05:43.644Z,11.93
2022-11-17T15:08:10.647Z,12.90
2022-11-17T15:10:41.972Z,13.18
2022-11-17T15:13:08.863Z,14.27
2022-11-17T15:15:37.372Z,14.93
2022-11-17T15:18:12.548Z,13.52
2022-11-17T15:20:39.343Z,13.45
2022-11-17T15:23:06.158Z,13.85
2022-11-17T15:25:42.704Z,13.85
2022-11-17T15:28:10.395Z,13.75
2022-11-17T15:30:42.418Z,12.80
2022-11-17T15:33:09.243Z,14.40
2022-11-17T15:35:42.308Z,14.00
2022-11-17T15:38:10.263Z,14.18
2022-11-17T15:40:37.240Z,13.90
2022-11-17T15:43:03.989Z,12.48
2022-11-17T15:45:30.822Z,11.68
2022-11-17T15:47:59.227Z,12.63
2022-11-17T15:50:32.055Z,11.45
2022-11-17T15:53:06.046Z,11.30
2022-11-17T15:55:34.534Z,11.25
2022-11-17T15:58:01.448Z,10.70
2022-11-17T16:00:30.698Z,10.82
2022-11-17T16:03:07.443Z,11.45
2022-11-17T16:05:34.251Z,11.70
2022-11-17T16:08:03.942Z,10.77
2022-11-17T16:10:30.736Z,11.63
2022-11-17T16:12:57.668Z,12.20
2022-11-17T16:15:24.594Z,12.18
2022-11-17T16:17:54.188Z,12.25
2022-11-17T16:20:23.840Z,11.88
2022-11-17T16:22:50.652Z,11.43
2022-11-17T16:25:17.566Z,11.20
2022-11-17T16:27:56.350Z,11.68
2022-11-17T16:30:28.372Z,11.45
2022-11-17T16:32:58.422Z,11.75
2022-11-17T16:35:29.640Z,10.88
2022-11-17T16:37:56.582Z,12.35
2022-11-17T16:40:23.341Z,11.80
2022-11-17T16:42:50.108Z,11.68
2022-11-17T16:45:18.776Z,12.18
2022-11-17T16:47:45.668Z,13.60
2022-11-17T16:50:13.732Z,14.98
2022-11-17T16:52:45.998Z,14.63
2022-11-17T16:55:13.027Z,15.50
2022-11-17T16:57:39.902Z,14.15
2022-11-17T17:00:10.297Z,15.43
2022-11-17T17:02:40.108Z,14.55
2022-11-17T17:05:11.762Z,14.75
2022-11-17T17:07:44.192Z,15.45
2022-11-17T17:10:11.664Z,15.45
2022-11-17T17:12:38.493Z,15.73
2022-11-17T17:15:06.565Z,15.38
2022-11-17T17:17:33.469Z,14.68
2022-11-17T17:20:00.262Z,14.27
2022-11-17T17:22:28.866Z,15.68
2022-11-17T17:24:58.130Z,21.45
2022-11-17T17:27:24.842Z,22.02
2022-11-17T17:29:51.791Z,23.05
2022-11-17T17:32:18.741Z,17.90
2022-11-17T17:34:45.448Z,15.63
2022-11-17T17:37:12.267Z,18.67
2022-11-17T17:39:39.120Z,18.52
2022-11-17T17:42:07.527Z,18.95
2022-11-17T17:44:34.465Z,17.20
2022-11-17T17:47:03.351Z,16.55
2022-11-17T17:49:39.519Z,15.65
2022-11-17T17:52:10.952Z,14.73
2022-11-17T17:54:40.453Z,13.85
2022-11-17T17:57:08.891Z,15.05
2022-11-17T17:59:35.767Z,14.50
2022-11-17T18:02:02.616Z,13.85
2022-11-17T18:04:29.480Z,14.48
2022-11-17T18:06:58.322Z,15.95
2022-11-17T18:09:25.109Z,14.63
2022-11-17T18:11:51.817Z,14.45
2022-11-17T18:14:21.063Z,15.40
2022-11-17T18:16:48.050Z,15.30
2022-11-17T18:19:28.443Z,16.33
2022-11-17T18:22:06.544Z,18.05
2022-11-17T18:24:42.464Z,16.60
2022-11-17T18:27:17.692Z,19.83
2022-11-17T18:30:08.639Z,17.55
2022-11-17T18:32:36.854Z,19.08
2022-11-17T18:35:03.846Z,19.30
2022-11-17T18:37:30.717Z,17.48
2022-11-17T18:39:58.648Z,20.60
2022-11-17T18:42:25.553Z,18.92
2022-11-17T18:44:52.299Z,17.88
2022-11-17T18:47:20.737Z,16.50
2022-11-17T18:49:47.492Z,17.02
2022-11-17T18:52:31.381Z,18.45
2022-11-17T18:55:06.866Z,18.20
2022-11-17T18:57:43.496Z,21.63
2022-11-17T19:00:37.848Z,18.33
2022-11-17T19:03:12.172Z,24.88
2022-11-17T19:05:39.227Z,24.27
2022-11-17T19:08:10.839Z,25.70
2022-11-17T19:10:50.922Z,23.85
2022-11-17T19:13:44.174Z,24.40
2022-11-17T19:16:13.312Z,24.02
2022-11-17T19:18:42.637Z,26.23
2022-11-17T19:21:11.831Z,25.80
2022-11-17T19:23:56.939Z,25.45
2022-11-17T19:26:25.569Z,28.38
2022-11-17T19:29:14.325Z,26.95
2022-11-17T19:31:46.568Z,27.33
2022-11-17T19:34:20.406Z,28.15
2022-11-17T19:37:07.857Z,30.50
2022-11-17T19:39:38.563Z,28.85
2022-11-17T19:42:10.789Z,29.20
2022-11-17T19:44:39.313Z,34.60
2022-11-17T19:47:10.684Z,32.80
2022-11-17T19:49:42.940Z,31.05
2022-11-17T19:52:24.529Z,29.35
2022-11-17T19:54:59.631Z,28.98
2022-11-17T19:57:29.585Z,30.38
2022-11-17T20:00:13.610Z,28.63
2022-11-17T20:02:40.716Z,28.45
2022-11-17T20:05:20.067Z,26.88
2022-11-17T20:07:47.199Z,28.67
2022-11-17T20:10:14.697Z,31.25
2022-11-17T20:12:43.620Z,32.38
2022-11-17T20:15:33.978Z,33.33
2022-11-17T20:18:01.928Z,36.15
2022-11-17T20:20:32.760Z,34.40
2022-11-17T20:23:12.626Z,32.35
2022-11-17T20:25:46.346Z,30.75
2022-11-17T20:28:13.217Z,30.58
2022-11-17T20:30:40.968Z,28.20
2022-11-17T20:33:07.940Z,29.88
2022-11-17T20:35:36.581Z,31.58
2022-11-17T20:38:15.923Z,30.50
2022-11-17T20:43:24.670Z,24.42
2022-11-17T20:45:51.611Z,26.23
2022-11-17T20:48:18.904Z,28.10
2022-11-17T20:50:57.703Z,26.73
2022-11-17T20:53:24.788Z,26.35
2022-11-17T20:55:51.548Z,26.20
2022-11-17T20:58:18.365Z,23.60
2022-11-17T21:00:45.160Z,23.98
2022-11-17T21:03:12.058Z,25.30
2022-11-17T21:05:38.807Z,25.73
2022-11-17T21:08:07.543Z,24.58
2022-11-17T21:14:03.219Z,24.73
2022-11-17T21:16:29.979Z,25.85
2022-11-17T21:18:58.465Z,25.48
2022-11-17T21:21:31.382Z,23.92
2022-11-17T21:23:59.610Z,23.17
2022-11-17T21:26:26.877Z,24.63
2022-11-17T21:29:06.191Z,23.98
2022-11-17T21:34:17.787Z,25.50
2022-11-17T21:36:44.839Z,25.65
2022-11-17T21:39:14.328Z,27.40
2022-11-17T21:41:46.180Z,24.92
2022-11-17T21:44:13.265Z,24.13
2022-11-17T21:46:40.302Z,24.35
2022-11-17T21:49:07.127Z,23.65
2022-11-17T21:51:36.017Z,24.38
2022-11-17T21:54:05.067Z,25.08
2022-11-17T22:55:19.913Z,22.10
2022-11-17T22:57:47.598Z,20.95
2022-11-17T23:00:29.570Z,23.27
2022-11-17T23:02:57.251Z,23.73
2022-11-17T23:05:35.582Z,24.05
2022-11-17T23:08:09.300Z,23.55
2022-11-17T23:13:56.629Z,23.27
2022-11-17T23:16:23.427Z,23.05
2022-11-17T23:18:53.136Z,24.08
2022-11-17T23:21:20.173Z,23.35
2022-11-17T23:23:47.129Z,23.58
2022-11-17T23:26:14.081Z,23.58
2022-11-17T23:28:42.289Z,23.08
2022-11-17T23:31:12.758Z,23.98
2022-11-17T23:33:41.372Z,24.63
2022-11-17T23:36:12.704Z,23.80
2022-11-17T23:38:39.957Z,24.15
2022-11-17T23:41:08.994Z,23.25
2022-11-17T23:43:36.389Z,24.48
2022-11-17T23:46:04.463Z,27.05
2022-11-17T23:48:32.941Z,26.60
2022-11-17T23:51:04.892Z,26.83
2022-11-17T23:53:31.916Z,24.33
2022-11-17T23:56:00.115Z,26.13
2022-11-17T23:58:27.490Z,25.52
